Time;durP1;ratioP1;P1;durP2;ratioP2;P2;SDS_P1;SDS_P2;PMS_P1;PMS_P2;Temp;Humidity;BMP_temperature;BMP_pressure;BME280_temperature;BME280_humidity;BME280_pressure;Samples;Min_cycle;Max_cycle;Signal;HPM_P1;HPM_P2
2022/08/21 00:01:53;;;;;;;19.13;8.47;;;18.50;99.90;;;;;;4975504;28;20419;-84
2022/08/21 00:04:22;;;;;;;22.88;8.65;;;18.60;99.90;;;;;;4990086;28;20941;-84
2022/08/21 00:06:58;;;;;;;18.15;7.22;;;18.60;99.90;;;;;;4990140;28;20422;-84
2022/08/21 00:09:26;;;;;;;16.58;7.35;;;18.60;99.90;;;;;;4990060;28;20403;-85
2022/08/21 00:11:54;;;;;;;16.05;7.20;;;18.60;99.90;;;;;;4973743;28;20978;-84
2022/08/21 00:14:21;;;;;;;21.38;8.65;;;18.50;99.90;;;;;;4975160;28;20877;-84
2022/08/21 00:16:49;;;;;;;21.58;8.80;;;18.50;99.90;;;;;;4989708;28;20462;-84
2022/08/21 00:19:17;;;;;;;23.58;9.57;;;18.50;99.90;;;;;;4990083;28;20413;-85
2022/08/21 00:21:48;;;;;;;19.35;8.65;;;18.50;99.90;;;;;;4974938;28;20422;-85
2022/08/21 00:24:15;;;;;;;18.20;7.68;;;18.40;99.90;;;;;;4989857;28;20804;-84
2022/08/21 00:26:43;;;;;;;22.90;8.77;;;18.40;99.90;;;;;;4989635;28;20881;-84
2022/08/21 00:29:12;;;;;;;19.73;8.10;;;18.50;99.90;;;;;;4974769;28;20478;-84
2022/08/21 00:31:42;;;;;;;24.33;9.70;;;18.50;99.90;;;;;;4974565;28;20565;-85
2022/08/21 00:34:11;;;;;;;22.63;8.67;;;18.50;99.90;;;;;;4989834;28;20390;-85
2022/08/21 00:36:39;;;;;;;22.57;9.27;;;18.40;99.90;;;;;;4974553;28;20397;-84
2022/08/21 00:39:08;;;;;;;21.60;9.10;;;18.40;99.90;;;;;;4989388;28;20407;-84
2022/08/21 00:41:38;;;;;;;17.90;7.95;;;18.40;99.90;;;;;;4974544;28;20426;-85
2022/08/21 00:44:10;;;;;;;20.73;8.75;;;18.40;99.90;;;;;;4973247;28;20895;-84
2022/08/21 00:46:38;;;;;;;16.88;8.18;;;18.40;99.90;;;;;;4989226;28;20753;-84
2022/08/21 00:49:07;;;;;;;16.50;7.85;;;18.40;99.90;;;;;;4973106;28;20437;-85
2022/08/21 00:51:43;;;;;;;20.05;8.45;;;18.30;99.90;;;;;;4989273;28;20489;-84
2022/08/21 00:54:11;;;;;;;21.98;8.45;;;18.40;99.90;;;;;;4989063;28;20450;-84
2022/08/21 00:56:50;;;;;;;17.60;6.93;;;18.30;99.90;;;;;;4972901;28;20793;-84
2022/08/21 00:59:20;;;;;;;19.25;8.00;;;18.30;99.90;;;;;;4989140;28;20441;-84
2022/08/21 01:01:49;;;;;;;17.60;7.32;;;18.30;99.90;;;;;;4974189;28;20401;-84
2022/08/21 01:04:17;;;;;;;20.10;8.75;;;18.30;99.90;;;;;;4989075;28;20487;-85
2022/08/21 01:06:45;;;;;;;15.50;7.10;;;18.30;99.90;;;;;;4972824;28;20391;-84
2022/08/21 01:09:14;;;;;;;22.00;8.88;;;18.30;99.90;;;;;;4988990;28;20403;-84
2022/08/21 01:11:44;;;;;;;21.50;8.13;;;18.20;99.90;;;;;;4974284;28;20390;-85
2022/08/21 01:14:14;;;;;;;13.32;6.93;;;18.20;99.90;;;;;;4972594;28;20398;-84
2022/08/21 01:16:46;;;;;;;22.38;8.98;;;18.20;99.90;;;;;;4988802;28;20394;-84
2022/08/21 01:19:14;;;;;;;21.38;8.07;;;18.10;99.90;;;;;;4988675;28;20419;-85
2022/08/21 01:21:42;;;;;;;20.00;7.88;;;18.10;99.90;;;;;;4972677;28;20402;-84
2022/08/21 01:24:11;;;;;;;22.30;8.63;;;18.10;99.90;;;;;;4988544;28;20486;-85
2022/08/21 01:26:41;;;;;;;17.98;7.45;;;18.10;99.90;;;;;;4971857;28;20410;-85
2022/08/21 01:29:30;;;;;;;18.33;7.10;;;18.20;99.90;;;;;;4988468;28;20399;-84
2022/08/21 01:32:03;;;;;;;20.25;7.57;;;18.10;99.90;;;;;;4972176;28;20485;-83
2022/08/21 01:34:32;;;;;;;22.02;8.60;;;18.10;99.90;;;;;;4988250;28;20481;-84
2022/08/21 01:37:00;;;;;;;18.15;7.57;;;18.10;99.90;;;;;;4972318;28;20427;-85
2022/08/21 01:39:27;;;;;;;32.20;9.00;;;18.00;99.90;;;;;;4972245;28;20554;-85
2022/08/21 01:41:55;;;;;;;19.25;8.40;;;18.10;99.90;;;;;;4988424;28;20502;-85
2022/08/21 01:44:24;;;;;;;17.27;7.57;;;18.10;99.90;;;;;;4972295;28;20809;-84
2022/08/21 01:46:52;;;;;;;20.00;8.23;;;18.10;99.90;;;;;;4972161;28;20387;-85
2022/08/21 01:49:20;;;;;;;20.70;7.77;;;18.10;99.90;;;;;;4988341;28;20419;-86
2022/08/21 01:51:48;;;;;;;16.85;7.97;;;18.00;99.90;;;;;;4972028;28;20773;-85
2022/08/21 01:54:16;;;;;;;16.60;6.73;;;18.00;99.90;;;;;;4972293;28;20485;-85
2022/08/21 01:56:47;;;;;;;18.55;7.18;;;18.10;99.90;;;;;;4988299;28;20406;-85
2022/08/21 01:59:15;;;;;;;16.88;7.00;;;18.00;99.90;;;;;;4988353;28;20414;-84
2022/08/21 02:01:43;;;;;;;20.90;8.17;;;18.00;99.90;;;;;;5002516;28;20457;-85
2022/08/21 02:04:10;;;;;;;15.63;7.47;;;18.00;99.90;;;;;;4988150;28;20752;-84
2022/08/21 02:06:39;;;;;;;17.13;8.13;;;18.00;99.90;;;;;;4987896;28;20931;-84
2022/08/21 02:09:09;;;;;;;18.20;7.53;;;17.90;99.90;;;;;;4988035;28;20448;-84
2022/08/21 02:11:40;;;;;;;20.60;8.35;;;17.90;99.90;;;;;;4988019;28;20509;-84
2022/08/21 02:14:14;;;;;;;22.13;8.87;;;17.80;99.90;;;;;;4988110;28;20410;-84
2022/08/21 02:16:58;;;;;;;18.20;7.43;;;17.80;99.90;;;;;;4988083;28;20394;-84
2022/08/21 02:19:37;;;;;;;13.13;6.25;;;17.90;99.90;;;;;;4972957;28;20417;-85
2022/08/21 02:22:11;;;;;;;22.23;8.48;;;18.00;99.90;;;;;;4973213;28;20396;-84
2022/08/21 02:24:39;;;;;;;14.73;6.53;;;17.90;99.90;;;;;;4973042;28;20558;-84
2022/08/21 02:27:25;;;;;;;16.73;7.32;;;17.90;99.90;;;;;;4972839;28;20390;-84
2022/08/21 02:29:57;;;;;;;13.98;6.40;;;17.90;99.90;;;;;;4987887;28;20394;-84
2022/08/21 02:32:26;;;;;;;17.08;7.15;;;17.90;99.90;;;;;;4972756;28;20395;-84
2022/08/21 02:34:54;;;;;;;15.80;6.72;;;17.90;99.90;;;;;;4987456;28;20418;-84
2022/08/21 02:37:22;;;;;;;17.02;7.28;;;17.90;99.90;;;;;;4988352;28;20394;-85
2022/08/21 02:39:50;;;;;;;17.80;6.68;;;17.90;99.90;;;;;;5007848;28;20426;-84
2022/08/21 02:42:18;;;;;;;18.50;7.80;;;17.80;99.90;;;;;;4976784;28;20398;-84
2022/08/21 02:44:46;;;;;;;20.70;7.05;;;17.80;99.90;;;;;;4991750;28;20391;-84
2022/08/21 02:47:14;;;;;;;17.85;8.40;;;17.80;99.90;;;;;;4975332;28;20404;-84
2022/08/21 02:49:42;;;;;;;19.30;7.47;;;17.80;99.90;;;;;;4976875;28;20390;-85
2022/08/21 02:52:11;;;;;;;18.90;7.80;;;17.70;99.90;;;;;;4976536;28;20398;-85
2022/08/21 02:54:39;;;;;;;17.63;7.22;;;17.70;99.90;;;;;;4991238;28;20821;-84
2022/08/21 02:57:08;;;;;;;17.30;7.07;;;17.80;99.90;;;;;;5007585;28;20438;-85
2022/08/21 02:59:35;;;;;;;18.67;7.47;;;17.70;99.90;;;;;;4991138;28;20444;-85
2022/08/21 03:02:03;;;;;;;21.02;7.82;;;17.70;99.90;;;;;;4992417;28;20751;-84
2022/08/21 03:04:31;;;;;;;18.13;7.05;;;17.60;99.90;;;;;;4995774;28;20388;-84
2022/08/21 03:07:00;;;;;;;15.38;6.80;;;17.70;99.90;;;;;;4995971;28;20505;-84
2022/08/21 03:09:27;;;;;;;19.67;6.80;;;17.60;99.90;;;;;;4995619;28;20397;-85
2022/08/21 03:11:55;;;;;;;14.27;6.50;;;17.70;99.90;;;;;;4994509;28;20396;-84
2022/08/21 03:14:23;;;;;;;17.70;7.93;;;17.60;99.90;;;;;;4995967;28;20393;-84
2022/08/21 03:16:51;;;;;;;19.30;7.55;;;17.60;99.90;;;;;;4995515;28;20420;-84
2022/08/21 03:19:20;;;;;;;17.55;7.90;;;17.60;99.90;;;;;;5010477;28;20405;-85
2022/08/21 03:21:48;;;;;;;14.37;7.40;;;17.60;99.90;;;;;;5010780;28;20500;-85
2022/08/21 03:24:16;;;;;;;18.45;8.50;;;17.50;99.90;;;;;;4994440;28;20399;-84
2022/08/21 03:26:48;;;;;;;19.33;8.20;;;17.40;99.90;;;;;;4978968;28;20400;-84
2022/08/21 03:29:16;;;;;;;15.23;8.10;;;17.40;99.90;;;;;;4994347;28;20423;-85
2022/08/21 03:31:44;;;;;;;19.80;7.47;;;17.40;99.90;;;;;;5010613;28;20436;-84
2022/08/21 03:34:12;;;;;;;18.42;8.13;;;17.50;99.90;;;;;;4977930;28;20396;-84
2022/08/21 03:36:40;;;;;;;19.00;8.18;;;17.40;99.90;;;;;;5010337;28;20404;-85
2022/08/21 03:39:07;;;;;;;20.10;7.72;;;17.40;99.90;;;;;;4977932;28;20440;-85
2022/08/21 03:41:35;;;;;;;18.00;7.97;;;17.50;99.90;;;;;;4995151;28;20393;-84
2022/08/21 03:44:03;;;;;;;19.70;7.83;;;17.50;99.90;;;;;;4995060;28;20393;-84
2022/08/21 03:46:31;;;;;;;17.25;7.60;;;17.40;99.90;;;;;;4995047;28;20393;-84
2022/08/21 03:48:59;;;;;;;23.10;9.18;;;17.40;99.90;;;;;;4993081;28;20401;-84
2022/08/21 03:51:27;;;;;;;17.70;8.18;;;17.40;99.90;;;;;;4993761;28;20412;-85
2022/08/21 03:53:54;;;;;;;20.92;8.85;;;17.40;99.90;;;;;;4995057;28;20829;-85
2022/08/21 03:56:22;;;;;;;20.80;8.55;;;17.30;99.90;;;;;;5010134;28;20899;-84
2022/08/21 03:58:50;;;;;;;18.00;8.30;;;17.20;99.90;;;;;;4993433;28;20439;-85
2022/08/21 04:01:18;;;;;;;20.95;8.32;;;17.30;99.90;;;;;;5009784;28;20408;-85
2022/08/21 04:03:46;;;;;;;18.00;7.85;;;17.30;99.90;;;;;;4993634;28;20385;-84
2022/08/21 04:06:14;;;;;;;15.48;7.90;;;17.30;99.90;;;;;;4993562;28;20392;-85
2022/08/21 04:08:42;;;;;;;15.98;7.95;;;17.30;99.90;;;;;;4993417;28;20389;-84
2022/08/21 04:11:10;;;;;;;19.08;7.97;;;17.30;99.90;;;;;;5009691;28;20921;-84
2022/08/21 04:13:39;;;;;;;19.92;8.25;;;17.40;99.90;;;;;;4993404;28;20393;-85
2022/08/21 04:16:12;;;;;;;18.88;9.05;;;17.10;99.90;;;;;;4993513;28;20879;-84
2022/08/21 04:18:39;;;;;;;18.67;7.00;;;17.10;99.90;;;;;;5009455;28;20476;-85
2022/08/21 04:21:10;;;;;;;20.83;9.30;;;17.30;99.90;;;;;;4994518;28;20435;-84
2022/08/21 04:23:39;;;;;;;22.23;8.25;;;17.30;99.90;;;;;;4994572;28;20393;-84
2022/08/21 04:26:07;;;;;;;20.63;8.60;;;17.10;99.90;;;;;;4994606;28;20440;-83
2022/08/21 04:28:35;;;;;;;20.75;8.68;;;17.10;99.90;;;;;;4994577;28;20403;-84
2022/08/21 04:31:03;;;;;;;19.67;8.70;;;17.10;99.90;;;;;;4992792;28;20389;-83
2022/08/21 04:33:31;;;;;;;19.42;8.02;;;17.20;99.90;;;;;;4977133;28;20460;-85
2022/08/21 04:35:59;;;;;;;21.10;8.30;;;17.20;99.90;;;;;;5009111;28;20447;-84
2022/08/21 04:38:27;;;;;;;17.50;8.05;;;17.20;99.90;;;;;;5008925;28;20767;-84
2022/08/21 04:41:06;;;;;;;18.30;8.55;;;17.20;99.90;;;;;;4992907;28;20444;-84
2022/08/21 04:43:34;;;;;;;19.15;8.38;;;17.10;99.90;;;;;;4993341;28;20505;-84
2022/08/21 04:46:02;;;;;;;20.75;8.73;;;17.10;99.90;;;;;;4992779;28;20393;-84
2022/08/21 04:48:30;;;;;;;18.38;8.60;;;17.20;99.90;;;;;;4993848;28;20425;-84
2022/08/21 04:51:07;;;;;;;18.08;8.15;;;17.20;99.90;;;;;;4976684;28;20445;-84
2022/08/21 04:53:38;;;;;;;20.52;8.02;;;17.20;99.90;;;;;;4992911;28;20405;-85
2022/08/21 04:56:11;;;;;;;13.73;7.80;;;17.10;99.90;;;;;;4993749;28;20425;-85
2022/08/21 04:58:42;;;;;;;15.77;7.78;;;17.10;99.90;;;;;;5008810;28;20464;-85
2022/08/21 05:01:15;;;;;;;17.75;7.63;;;17.10;99.90;;;;;;4993251;28;20386;-85
2022/08/21 05:03:45;;;;;;;15.45;7.20;;;17.00;99.90;;;;;;4993549;28;20446;-84
2022/08/21 05:06:15;;;;;;;23.05;8.70;;;17.10;99.90;;;;;;4993355;28;20431;-83
2022/08/21 05:08:45;;;;;;;17.65;8.05;;;17.10;99.90;;;;;;4992206;28;20397;-83
2022/08/21 05:11:13;;;;;;;20.73;7.22;;;17.10;99.90;;;;;;4993335;28;20392;-84
2022/08/21 05:13:41;;;;;;;15.85;7.93;;;17.10;99.90;;;;;;4993463;28;20389;-84
2022/08/21 05:16:08;;;;;;;16.50;7.68;;;17.00;99.90;;;;;;4993151;28;20389;-84
2022/08/21 05:18:36;;;;;;;20.10;8.00;;;17.00;99.90;;;;;;4993297;28;20404;-84
2022/08/21 05:21:04;;;;;;;22.27;8.68;;;17.00;99.90;;;;;;4993232;28;20417;-84
2022/08/21 05:23:32;;;;;;;15.13;6.93;;;17.10;99.90;;;;;;5008425;28;20393;-83
2022/08/21 05:26:00;;;;;;;18.83;7.68;;;17.20;99.90;;;;;;5008293;28;20420;-85
2022/08/21 05:28:28;;;;;;;20.23;8.05;;;17.30;99.90;;;;;;5008226;28;20403;-83
2022/08/21 05:30:56;;;;;;;17.48;7.90;;;17.10;99.90;;;;;;4991882;28;20422;-84
2022/08/21 05:33:24;;;;;;;15.93;8.20;;;17.10;99.90;;;;;;4992109;28;20596;-83
2022/08/21 05:35:55;;;;;;;20.65;7.85;;;17.10;99.90;;;;;;4992857;28;20408;-84
2022/08/21 05:38:24;;;;;;;16.43;7.27;;;17.10;99.90;;;;;;5008297;28;20444;-84
2022/08/21 05:40:52;;;;;;;17.43;8.30;;;17.20;99.90;;;;;;4991712;28;20393;-85
2022/08/21 05:43:20;;;;;;;21.15;8.73;;;17.20;99.90;;;;;;5008054;28;20772;-84
2022/08/21 05:45:48;;;;;;;22.38;8.70;;;17.30;99.90;;;;;;5007932;28;20436;-85
2022/08/21 05:48:22;;;;;;;18.27;8.03;;;17.20;99.90;;;;;;4991623;28;20400;-85
2022/08/21 05:50:51;;;;;;;18.35;8.07;;;17.10;99.90;;;;;;4992593;28;20495;-83
2022/08/21 05:53:22;;;;;;;19.65;8.40;;;17.20;99.90;;;;;;4992559;28;20396;-84
2022/08/21 05:55:51;;;;;;;22.88;8.75;;;17.20;99.90;;;;;;5007808;28;20783;-83
2022/08/21 05:58:22;;;;;;;18.25;7.82;;;17.20;99.90;;;;;;4992587;28;20400;-84
2022/08/21 06:00:52;;;;;;;17.23;7.82;;;17.20;99.90;;;;;;5007590;28;20879;-84
2022/08/21 06:03:27;;;;;;;19.17;8.90;;;17.30;99.90;;;;;;4992613;28;20459;-85
2022/08/21 06:05:55;;;;;;;17.58;8.10;;;17.20;99.90;;;;;;5007626;28;20444;-84
2022/08/21 06:08:24;;;;;;;16.75;7.82;;;17.20;99.90;;;;;;5007932;28;20447;-84
2022/08/21 06:10:53;;;;;;;17.95;8.63;;;17.30;99.90;;;;;;4992189;28;20476;-84
2022/08/21 06:13:23;;;;;;;26.77;9.13;;;17.30;99.90;;;;;;4991240;28;20389;-83
2022/08/21 06:16:12;;;;;;;16.40;7.93;;;17.30;99.90;;;;;;4992262;28;20898;-83
2022/08/21 06:18:44;;;;;;;18.35;7.72;;;17.30;99.90;;;;;;4991346;28;20844;-85
2022/08/21 06:21:13;;;;;;;19.10;8.25;;;17.20;99.90;;;;;;4990934;28;20740;-84
2022/08/21 06:23:42;;;;;;;16.75;8.20;;;17.20;99.90;;;;;;4991138;28;20389;-85
2022/08/21 06:26:12;;;;;;;20.33;8.02;;;17.30;99.90;;;;;;4975141;28;20460;-84
2022/08/21 06:28:41;;;;;;;20.52;8.43;;;17.30;99.90;;;;;;4975305;28;20463;-84
2022/08/21 06:31:18;;;;;;;17.23;6.90;;;17.40;99.90;;;;;;4974947;28;20397;-84
2022/08/21 06:33:46;;;;;;;17.58;8.13;;;17.40;99.90;;;;;;4990904;28;20396;-85
2022/08/21 06:36:14;;;;;;;16.42;7.65;;;17.40;99.90;;;;;;4990774;28;20491;-84
2022/08/21 06:38:43;;;;;;;20.17;8.43;;;17.50;99.90;;;;;;4990950;28;20459;-83
2022/08/21 06:41:18;;;;;;;14.32;7.95;;;17.50;99.90;;;;;;5007677;28;20903;-84
2022/08/21 06:43:50;;;;;;;17.73;8.03;;;17.50;99.90;;;;;;4990905;28;20512;-85
2022/08/21 06:46:18;;;;;;;15.48;7.32;;;17.50;99.90;;;;;;4992179;28;20392;-84
2022/08/21 06:48:46;;;;;;;20.95;7.63;;;17.50;99.90;;;;;;5007242;28;20393;-84
2022/08/21 06:51:14;;;;;;;18.50;7.80;;;17.50;99.90;;;;;;4990851;28;20408;-84
2022/08/21 06:53:42;;;;;;;15.65;7.50;;;17.50;99.90;;;;;;5006967;28;20455;-84
2022/08/21 06:56:10;;;;;;;19.05;8.40;;;17.50;99.90;;;;;;4992229;28;20393;-85
2022/08/21 06:58:38;;;;;;;17.23;7.90;;;17.50;99.90;;;;;;5007016;28;20404;-85
2022/08/21 07:01:06;;;;;;;14.95;7.35;;;17.50;99.90;;;;;;4990963;28;20440;-85
2022/08/21 07:03:37;;;;;;;19.33;7.95;;;17.50;99.90;;;;;;5007009;28;20926;-84
2022/08/21 07:06:07;;;;;;;21.27;7.95;;;17.60;99.90;;;;;;4990884;28;20415;-85
2022/08/21 07:08:36;;;;;;;19.30;8.35;;;17.60;99.90;;;;;;5007132;28;20443;-85
2022/08/21 07:11:14;;;;;;;18.63;8.07;;;17.60;99.90;;;;;;5007084;28;20477;-85
2022/08/21 07:13:42;;;;;;;19.88;7.45;;;17.60;99.90;;;;;;4991926;28;20389;-84
2022/08/21 07:16:10;;;;;;;15.38;7.65;;;17.60;99.90;;;;;;5006871;28;20411;-85
2022/08/21 07:18:38;;;;;;;20.42;7.75;;;17.60;99.90;;;;;;5006938;28;20439;-84
2022/08/21 07:21:07;;;;;;;16.55;7.60;;;17.50;99.90;;;;;;4990680;28;20388;-84
2022/08/21 07:23:41;;;;;;;21.13;8.15;;;17.60;99.90;;;;;;4992641;28;20870;-84
2022/08/21 07:26:11;;;;;;;19.27;8.23;;;17.60;99.90;;;;;;5010438;28;20428;-85
2022/08/21 07:28:39;;;;;;;14.02;7.00;;;17.60;99.90;;;;;;4995450;28;20392;-83
2022/08/21 07:31:08;;;;;;;16.75;7.28;;;17.70;99.90;;;;;;4994337;28;20393;-84
2022/08/21 07:33:36;;;;;;;18.17;7.50;;;17.70;99.90;;;;;;4994218;28;20416;-84
2022/08/21 07:36:05;;;;;;;20.08;7.97;;;17.80;99.90;;;;;;5010202;28;20389;-84
2022/08/21 07:38:33;;;;;;;21.45;7.47;;;17.80;99.90;;;;;;4995192;28;20400;-84
2022/08/21 07:41:02;;;;;;;22.07;8.13;;;17.90;99.90;;;;;;4993917;28;20765;-85
2022/08/21 07:43:30;;;;;;;21.40;8.63;;;17.90;99.90;;;;;;5010200;28;20401;-84
2022/08/21 07:45:58;;;;;;;19.25;7.80;;;17.90;99.90;;;;;;4993868;28;20471;-85
2022/08/21 07:48:26;;;;;;;20.50;7.73;;;17.90;99.90;;;;;;5010063;28;20933;-84
2022/08/21 07:50:55;;;;;;;18.05;7.28;;;17.80;99.90;;;;;;5009525;28;20483;-83
2022/08/21 07:53:22;;;;;;;22.20;8.30;;;17.80;99.90;;;;;;4993718;28;20415;-84
2022/08/21 07:55:50;;;;;;;18.17;7.78;;;17.80;99.90;;;;;;4994863;28;20977;-83
2022/08/21 07:58:18;;;;;;;18.13;7.78;;;17.80;99.90;;;;;;4994840;28;20393;-83
2022/08/21 08:00:46;;;;;;;16.70;7.88;;;17.80;99.90;;;;;;4994714;28;20405;-85
2022/08/21 08:03:13;;;;;;;19.48;7.38;;;17.80;99.90;;;;;;4994722;28;20798;-84
2022/08/21 08:05:54;;;;;;;18.30;7.30;;;17.80;99.90;;;;;;4994832;28;20875;-83
2022/08/21 08:08:22;;;;;;;20.55;7.88;;;17.90;99.90;;;;;;4993532;28;20439;-85
2022/08/21 08:10:50;;;;;;;16.17;7.00;;;18.00;99.90;;;;;;4994720;28;20404;-85
2022/08/21 08:13:18;;;;;;;17.73;7.50;;;18.10;99.90;;;;;;4993751;28;20485;-85
2022/08/21 08:15:46;;;;;;;20.50;8.10;;;18.20;99.90;;;;;;4993389;28;20517;-83
2022/08/21 08:18:14;;;;;;;21.98;8.10;;;18.20;99.90;;;;;;5009602;28;20389;-85
2022/08/21 08:20:42;;;;;;;47.75;10.02;;;18.30;99.90;;;;;;5009353;28;20922;-84
2022/08/21 08:23:11;;;;;;;26.55;8.40;;;18.40;99.90;;;;;;4994260;28;20480;-85
2022/08/21 08:25:39;;;;;;;17.45;7.30;;;18.50;99.90;;;;;;5009380;28;20887;-84
2022/08/21 08:28:07;;;;;;;17.30;7.75;;;18.60;99.90;;;;;;5009260;28;20389;-84
2022/08/21 08:30:45;;;;;;;22.55;7.85;;;18.60;99.90;;;;;;5009496;28;20432;-85
2022/08/21 08:33:14;;;;;;;16.70;7.13;;;18.70;99.90;;;;;;4993972;28;20397;-84
2022/08/21 08:35:47;;;;;;;19.42;7.22;;;18.80;99.90;;;;;;4993160;28;20404;-85
2022/08/21 08:38:18;;;;;;;20.05;7.55;;;18.90;99.90;;;;;;4993072;28;20416;-85
2022/08/21 08:41:12;;;;;;;16.67;7.63;;;19.00;99.90;;;;;;4992458;28;20455;-84
2022/08/21 08:43:44;;;;;;;17.43;7.57;;;19.00;99.90;;;;;;4994053;28;20820;-85
2022/08/21 08:46:15;;;;;;;17.00;6.68;;;19.00;99.90;;;;;;4992671;28;20389;-85
2022/08/21 08:49:31;;;;;;;16.80;7.30;;;18.90;99.90;;;;;;4992792;28;20463;-85
2022/08/21 08:52:07;;;;;;;19.85;6.75;;;18.90;99.90;;;;;;4933715;29;20402;-83
2022/08/21 08:54:40;;;;;;;18.25;6.80;;;19.00;99.90;;;;;;4989326;28;20758;-84
2022/08/21 08:57:14;;;;;;;20.27;7.00;;;19.20;99.90;;;;;;5008645;28;20447;-84
2022/08/21 08:59:49;;;;;;;17.52;7.38;;;19.20;99.90;;;;;;4993578;28;20405;-85
2022/08/21 09:02:20;;;;;;;15.32;7.78;;;19.20;99.90;;;;;;5008809;28;20505;-84
2022/08/21 09:04:50;;;;;;;19.73;7.20;;;19.10;99.90;;;;;;4992691;28;20396;-84
2022/08/21 09:07:47;;;;;;;19.17;7.25;;;19.10;99.90;;;;;;4993788;28;20384;-84
2022/08/21 09:10:32;;;;;;;25.13;7.82;;;19.20;99.90;;;;;;5008662;28;20400;-84
2022/08/21 09:13:12;;;;;;;21.23;7.80;;;19.20;99.90;;;;;;5008436;28;20400;-83
2022/08/21 09:15:56;;;;;;;20.02;7.80;;;19.20;99.90;;;;;;4992188;28;20400;-84
2022/08/21 09:18:44;;;;;;;21.03;7.50;;;19.40;99.90;;;;;;4992287;28;20389;-83
2022/08/21 09:21:24;;;;;;;20.67;7.63;;;19.40;99.90;;;;;;5008253;28;20409;-84
2022/08/21 09:24:21;;;;;;;18.80;7.18;;;19.50;99.90;;;;;;4991991;28;20461;-84
2022/08/21 09:27:08;;;;;;;20.35;7.57;;;19.70;99.90;;;;;;4975888;28;20767;-85
2022/08/21 09:29:41;;;;;;;23.20;8.27;;;19.60;99.90;;;;;;4993477;28;20385;-85
2022/08/21 09:32:29;;;;;;;23.10;7.70;;;19.50;99.90;;;;;;4991973;28;20463;-85
2022/08/21 09:35:06;;;;;;;23.33;8.32;;;19.50;99.90;;;;;;4993278;28;20954;-85
2022/08/21 09:37:57;;;;;;;19.95;7.63;;;19.60;99.90;;;;;;5007950;28;20500;-85
2022/08/21 09:40:40;;;;;;;20.50;7.90;;;19.60;99.90;;;;;;5008223;28;20436;-84
2022/08/21 09:43:13;;;;;;;22.88;7.00;;;19.50;99.90;;;;;;4992878;28;20893;-84
2022/08/21 09:45:44;;;;;;;17.33;7.45;;;19.50;99.90;;;;;;4992662;28;20756;-85
2022/08/21 09:48:21;;;;;;;20.08;7.30;;;19.60;99.90;;;;;;4992622;28;20459;-85
2022/08/21 09:51:04;;;;;;;19.02;6.80;;;19.70;99.90;;;;;;4992449;28;20441;-84
2022/08/21 09:53:33;;;;;;;20.23;7.05;;;19.80;99.90;;;;;;4991733;28;20392;-85
2022/08/21 09:59:18;;;;;;;22.67;7.72;;;19.90;99.90;;;;;;4992647;28;20397;-84
2022/08/21 10:01:50;;;;;;;21.85;7.63;;;20.00;99.90;;;;;;4991340;28;20416;-84
2022/08/21 10:04:38;;;;;;;24.35;7.03;;;20.00;99.90;;;;;;5007583;28;20472;-85
2022/08/21 10:07:12;;;;;;;16.77;6.93;;;20.00;99.90;;;;;;4975187;28;20388;-85
2022/08/21 10:09:41;;;;;;;23.03;7.30;;;19.90;99.90;;;;;;4991412;28;20419;-85
2022/08/21 10:12:24;;;;;;;27.35;7.68;;;19.90;99.90;;;;;;5007651;28;20480;-86
2022/08/21 10:15:10;;;;;;;21.23;7.88;;;19.90;99.90;;;;;;4991406;28;20909;-84
2022/08/21 10:17:57;;;;;;;20.50;6.95;;;19.90;99.90;;;;;;5007702;28;20440;-84
2022/08/21 10:20:40;;;;;;;18.80;7.10;;;19.90;99.90;;;;;;4991281;28;20412;-85
2022/08/21 10:23:40;;;;;;;19.42;7.13;;;20.00;99.90;;;;;;4992660;28;20393;-84
2022/08/21 10:26:14;;;;;;;21.42;7.15;;;20.10;99.90;;;;;;4971999;28;20747;-85
2022/08/21 10:29:21;;;;;;;20.77;7.45;;;20.20;99.90;;;;;;4992497;28;20396;-85
2022/08/21 10:32:14;;;;;;;19.10;7.60;;;20.40;99.90;;;;;;4975069;28;20392;-85
2022/08/21 10:35:13;;;;;;;22.02;7.07;;;20.60;99.90;;;;;;4967166;28;20466;-85
2022/08/21 10:37:59;;;;;;;22.05;7.40;;;20.50;99.90;;;;;;4990844;28;20393;-84
2022/08/21 10:40:44;;;;;;;20.15;7.38;;;20.50;99.90;;;;;;4992538;28;20465;-85
2022/08/21 10:43:39;;;;;;;22.53;6.80;;;20.60;99.90;;;;;;5007730;28;20840;-85
2022/08/21 10:46:17;;;;;;;22.70;7.57;;;20.60;99.90;;;;;;4991069;28;20951;-85
2022/08/21 10:48:57;;;;;;;17.70;6.75;;;20.70;99.90;;;;;;4992160;28;20451;-85
2022/08/21 10:51:50;;;;;;;20.15;6.70;;;20.70;99.90;;;;;;4991062;28;20504;-85
2022/08/21 10:54:41;;;;;;;23.33;8.05;;;20.80;99.90;;;;;;5007219;28;20401;-85
2022/08/21 10:57:45;;;;;;;20.92;8.25;;;21.20;99.90;;;;;;4992461;28;20388;-84
2022/08/21 11:00:20;;;;;;;24.88;7.90;;;21.50;99.90;;;;;;5010474;28;20487;-85
2022/08/21 11:03:20;;;;;;;22.58;7.05;;;21.40;99.90;;;;;;5010863;28;20399;-85
2022/08/21 11:05:53;;;;;;;18.77;6.75;;;21.30;99.90;;;;;;4995675;28;20481;-85
2022/08/21 11:08:37;;;;;;;20.13;6.72;;;21.20;99.90;;;;;;5010665;28;20392;-84
2022/08/21 11:11:12;;;;;;;24.57;7.30;;;21.10;99.90;;;;;;4994553;28;20404;-83
2022/08/21 11:13:53;;;;;;;20.75;6.95;;;21.40;99.90;;;;;;4995782;28;20393;-85
2022/08/21 11:16:36;;;;;;;21.33;7.03;;;21.70;99.90;;;;;;4995913;28;20393;-84
2022/08/21 11:19:19;;;;;;;18.00;6.30;;;21.60;99.90;;;;;;5010759;28;20455;-85
2022/08/21 11:22:25;;;;;;;24.48;6.97;;;21.50;99.90;;;;;;4995443;28;20436;-85
2022/08/21 11:24:59;;;;;;;20.00;6.77;;;21.40;99.90;;;;;;4994435;28;20416;-84
2022/08/21 11:27:50;;;;;;;21.02;7.22;;;21.40;99.90;;;;;;4994332;28;20443;-85
2022/08/21 11:30:18;;;;;;;24.25;7.25;;;21.40;99.90;;;;;;4973555;28;20523;-85
2022/08/21 11:32:58;;;;;;;22.08;6.95;;;21.40;99.90;;;;;;5010644;28;20395;-85
2022/08/21 11:35:37;;;;;;;24.33;7.53;;;21.50;99.90;;;;;;4995503;28;20385;-84
2022/08/21 11:38:14;;;;;;;21.73;6.63;;;21.50;99.90;;;;;;5010236;28;20795;-85
2022/08/21 11:41:09;;;;;;;22.97;6.63;;;21.60;99.90;;;;;;4994131;28;20898;-85
2022/08/21 11:43:48;;;;;;;19.00;6.30;;;21.60;99.90;;;;;;4978028;28;20858;-85
2022/08/21 11:46:33;;;;;;;22.47;7.23;;;21.60;99.90;;;;;;4978164;28;20905;-85
2022/08/21 11:49:32;;;;;;;22.70;6.50;;;21.90;99.90;;;;;;4994995;28;20464;-85
2022/08/21 11:52:16;;;;;;;18.48;6.13;;;22.20;99.90;;;;;;4977852;28;20397;-86
2022/08/21 11:55:26;;;;;;;20.70;6.88;;;22.40;99.90;;;;;;5009835;28;20408;-84
2022/08/21 11:58:06;;;;;;;23.48;6.50;;;22.40;99.90;;;;;;4978663;28;20407;-85
2022/08/21 12:00:46;;;;;;;23.40;6.80;;;22.50;99.90;;;;;;4994523;28;20415;-85
2022/08/21 12:03:22;;;;;;;21.88;6.88;;;22.60;99.90;;;;;;4977578;28;20389;-85
2022/08/21 12:05:57;;;;;;;19.90;6.50;;;22.60;99.90;;;;;;5010039;28;20420;-86
2022/08/21 12:08:53;;;;;;;24.93;6.80;;;22.50;99.90;;;;;;4993564;28;20408;-86
2022/08/21 12:11:21;;;;;;;22.48;6.53;;;22.50;99.90;;;;;;4992652;28;20523;-85
2022/08/21 12:14:07;;;;;;;23.92;6.85;;;22.50;99.90;;;;;;4993664;28;20791;-85
2022/08/21 12:16:37;;;;;;;19.45;6.20;;;22.50;99.90;;;;;;4993293;28;20463;-84
2022/08/21 12:19:28;;;;;;;21.05;6.82;;;22.50;99.90;;;;;;4994498;28;20457;-84
2022/08/21 12:22:06;;;;;;;18.45;6.20;;;22.60;99.90;;;;;;4993585;28;20409;-84
2022/08/21 12:24:36;;;;;;;22.02;6.55;;;22.70;99.90;;;;;;4993352;28;20389;-85
2022/08/21 12:27:27;;;;;;;22.10;6.93;;;22.80;99.90;;;;;;4994318;28;20827;-86
2022/08/21 12:30:06;;;;;;;22.33;6.78;;;22.70;99.90;;;;;;4993121;28;20452;-85
2022/08/21 12:32:59;;;;;;;23.80;6.90;;;22.60;99.90;;;;;;4994191;28;20447;-85
2022/08/21 12:35:38;;;;;;;22.95;7.38;;;22.60;99.90;;;;;;4994337;28;20389;-85
2022/08/21 12:38:23;;;;;;;21.45;5.90;;;22.50;99.90;;;;;;4992960;28;20397;-84
2022/08/21 12:41:00;;;;;;;18.10;6.67;;;22.40;99.90;;;;;;4993882;28;20455;-84
2022/08/21 12:43:34;;;;;;;19.65;6.35;;;22.40;99.90;;;;;;4992947;28;20986;-84
2022/08/21 12:46:04;;;;;;;21.27;6.63;;;22.30;99.90;;;;;;4994020;28;20396;-85
2022/08/21 12:48:41;;;;;;;21.92;6.13;;;22.30;99.90;;;;;;4992564;28;20432;-84
2022/08/21 12:51:16;;;;;;;25.60;6.60;;;22.30;99.90;;;;;;4993652;28;20408;-85
2022/08/21 12:53:46;;;;;;;20.85;6.53;;;22.30;99.90;;;;;;5009225;28;20459;-84
2022/08/21 12:56:17;;;;;;;24.90;6.47;;;22.30;99.90;;;;;;4992740;28;20393;-86
2022/08/21 12:59:03;;;;;;;25.05;6.88;;;22.40;99.90;;;;;;4992684;28;20483;-85
2022/08/21 13:01:38;;;;;;;57.13;8.90;;;22.40;99.90;;;;;;4992461;28;20409;-85
2022/08/21 13:04:17;;;;;;;20.00;6.70;;;22.30;99.90;;;;;;4992465;28;20420;-85
2022/08/21 13:06:51;;;;;;;18.92;6.00;;;22.20;99.90;;;;;;5008718;28;20397;-85
2022/08/21 13:09:25;;;;;;;20.30;6.65;;;22.30;99.90;;;;;;4992297;28;20407;-85
2022/08/21 13:11:53;;;;;;;20.02;6.35;;;22.30;99.90;;;;;;4993373;28;20389;-84